createdAt,value
2023-02-22T00:01:53.020Z,0.00
2023-02-22T00:06:52.266Z,0.00
2023-02-22T00:11:52.438Z,0.00
2023-02-22T00:16:50.653Z,0.00
2023-02-22T00:21:49.823Z,0.00
2023-02-22T00:26:48.979Z,0.00
2023-02-22T00:31:48.209Z,0.00
2023-02-22T00:36:48.412Z,0.00
2023-02-22T00:41:47.902Z,0.00
2023-02-22T00:46:45.999Z,0.00
2023-02-22T00:51:45.232Z,0.00
2023-02-22T00:56:44.386Z,0.00
2023-02-22T01:01:43.596Z,0.00
2023-02-22T01:06:41.805Z,0.00
2023-02-22T01:11:41.957Z,0.00
2023-02-22T01:16:41.305Z,0.00
2023-02-22T01:21:41.242Z,0.00
2023-02-22T01:26:39.626Z,0.00
2023-02-22T01:31:38.959Z,0.00
2023-02-22T01:36:38.040Z,0.00
2023-02-22T01:41:37.197Z,0.00
2023-02-22T01:46:37.416Z,0.00
2023-02-22T01:51:35.746Z,0.00
2023-02-22T01:56:35.106Z,0.00
2023-02-22T02:01:33.914Z,0.00
2023-02-22T02:06:33.085Z,0.00
2023-02-22T02:11:33.260Z,0.00
2023-02-22T02:16:31.436Z,0.00
2023-02-22T02:21:29.620Z,0.00
2023-02-22T02:26:30.787Z,0.00
2023-02-22T02:31:28.987Z,0.00
2023-02-22T02:36:28.179Z,0.00
2023-02-22T02:41:27.360Z,0.00
2023-02-22T02:46:25.496Z,0.00
2023-02-22T02:51:25.673Z,0.00
2023-02-22T02:56:25.002Z,0.00
2023-02-22T03:01:24.022Z,0.00
2023-02-22T03:06:23.215Z,0.00
2023-02-22T03:11:22.461Z,0.00
2023-02-22T03:16:21.661Z,0.00
2023-02-22T03:21:20.879Z,0.00
2023-02-22T03:26:15.433Z,0.00
2023-02-22T03:31:19.498Z,0.00
2023-02-22T03:36:18.436Z,0.00
2023-02-22T03:41:17.944Z,0.00
2023-02-22T03:46:15.981Z,0.00
2023-02-22T03:51:16.926Z,0.00
2023-02-22T03:56:15.496Z,0.00
2023-02-22T04:01:15.163Z,0.00
2023-02-22T04:06:14.063Z,0.00
2023-02-22T04:11:14.410Z,0.00
2023-02-22T04:16:13.529Z,0.00
2023-02-22T04:21:11.893Z,0.00
2023-02-22T04:26:10.175Z,0.00
2023-02-22T04:31:10.530Z,0.00
2023-02-22T04:36:09.597Z,0.00
2023-02-22T04:41:08.677Z,0.00
2023-02-22T04:46:08.122Z,0.00
2023-02-22T04:51:07.357Z,0.00
2023-02-22T04:56:06.678Z,0.00
2023-02-22T05:01:05.826Z,0.00
2023-02-22T05:06:08.035Z,0.00
2023-02-22T05:11:03.208Z,0.00
2023-02-22T05:16:03.513Z,0.00
2023-02-22T05:21:02.806Z,0.00
2023-02-22T05:26:02.057Z,0.00
2023-02-22T05:31:01.333Z,0.00
2023-02-22T05:36:00.539Z,0.00
2023-02-22T05:40:59.793Z,0.00
2023-02-22T05:45:58.010Z,0.00
2023-02-22T05:50:59.248Z,0.00
2023-02-22T05:55:57.425Z,0.00
2023-02-22T06:00:56.568Z,0.00
2023-02-22T06:05:55.852Z,0.00
2023-02-22T06:10:54.948Z,0.00
2023-02-22T06:15:54.252Z,0.00
2023-02-22T06:20:53.519Z,0.00
2023-02-22T06:25:52.737Z,0.00
2023-02-22T06:30:51.900Z,0.00
2023-02-22T06:35:51.052Z,0.00
2023-02-22T06:40:50.257Z,0.00
2023-02-22T06:45:48.439Z,0.00
2023-02-22T06:50:47.748Z,0.00
2023-02-22T06:55:48.922Z,0.00
2023-02-22T07:00:47.191Z,0.00
2023-02-22T07:05:47.422Z,0.00
2023-02-22T07:10:45.656Z,0.00
2023-02-22T07:15:44.887Z,0.00
2023-02-22T07:20:41.074Z,0.00
2023-02-22T07:25:42.243Z,0.00
2023-02-22T07:30:42.553Z,0.00
2023-02-22T07:35:41.762Z,0.00
2023-02-22T07:40:41.079Z,0.00
2023-02-22T07:45:39.171Z,0.00
2023-02-22T07:50:41.483Z,0.00
2023-02-22T07:55:38.644Z,0.00
2023-02-22T08:00:36.844Z,0.00
2023-02-22T08:05:37.015Z,0.00
2023-02-22T08:10:36.209Z,0.00
2023-02-22T08:15:35.311Z,296.00
2023-02-22T08:20:35.729Z,300.00
2023-02-22T08:25:34.852Z,296.00
2023-02-22T08:30:33.727Z,288.00
2023-02-22T08:35:33.557Z,292.00
2023-02-22T08:40:32.688Z,276.00
2023-02-22T08:45:31.025Z,32.00
2023-02-22T08:50:31.049Z,36.00
2023-02-22T08:55:29.210Z,36.00
2023-02-22T09:00:28.296Z,36.00
2023-02-22T09:05:31.342Z,40.00
2023-02-22T09:10:26.921Z,56.00
2023-02-22T09:15:28.025Z,48.00
2023-02-22T09:20:25.347Z,44.00
2023-02-22T09:25:25.650Z,52.00
2023-02-22T09:30:24.161Z,68.00
2023-02-22T09:35:23.191Z,52.00
2023-02-22T09:40:22.343Z,44.00
2023-02-22T09:45:22.477Z,44.00
2023-02-22T09:50:20.795Z,44.00
2023-02-22T09:55:22.131Z,56.00
2023-02-22T10:00:20.437Z,40.00
2023-02-22T10:05:19.800Z,36.00
2023-02-22T10:10:18.943Z,36.00
2023-02-22T10:15:18.246Z,52.00
2023-02-22T10:20:18.543Z,68.00
2023-02-22T10:25:15.856Z,68.00
2023-02-22T10:30:24.495Z,60.00
2023-02-22T10:35:16.369Z,64.00
2023-02-22T10:40:13.741Z,40.00
2023-02-22T10:45:12.859Z,56.00
2023-02-22T10:50:13.169Z,56.00
2023-02-22T10:55:15.560Z,36.00
2023-02-22T11:00:11.763Z,36.00
2023-02-22T11:05:10.106Z,56.00
2023-02-22T11:10:09.259Z,60.00
2023-02-22T11:15:08.400Z,44.00
2023-02-22T11:20:07.747Z,40.00
2023-02-22T11:25:07.905Z,44.00
2023-02-22T11:30:06.222Z,56.00
2023-02-22T11:35:09.372Z,52.00
2023-02-22T11:40:04.832Z,60.00
2023-02-22T11:45:06.132Z,60.00
2023-02-22T11:50:04.452Z,64.00
2023-02-22T11:55:02.789Z,52.00
2023-02-22T12:00:03.937Z,56.00
2023-02-22T12:05:01.346Z,52.00
2023-02-22T12:10:00.489Z,52.00
2023-02-22T12:14:59.831Z,56.00
2023-02-22T12:19:58.949Z,56.00
2023-02-22T12:25:08.963Z,56.00
2023-02-22T12:29:58.250Z,60.00
2023-02-22T12:34:56.573Z,60.00
2023-02-22T12:39:55.879Z,64.00
2023-02-22T12:44:55.200Z,64.00
2023-02-22T12:49:54.503Z,60.00
2023-02-22T12:54:54.845Z,56.00
2023-02-22T12:59:54.157Z,44.00
2023-02-22T13:04:53.483Z,48.00
2023-02-22T13:09:51.804Z,48.00
2023-02-22T13:14:50.997Z,40.00
2023-02-22T13:19:51.157Z,44.00
2023-02-22T13:24:49.459Z,52.00
2023-02-22T13:29:49.814Z,48.00
2023-02-22T13:34:48.938Z,48.00
2023-02-22T13:39:47.244Z,52.00
2023-02-22T13:44:46.576Z,52.00
2023-02-22T13:49:45.710Z,44.00
2023-02-22T13:54:45.040Z,48.00
2023-02-22T13:59:44.355Z,48.00
2023-02-22T14:04:43.658Z,44.00
2023-02-22T14:09:43.958Z,40.00
2023-02-22T14:14:43.287Z,32.00
2023-02-22T14:19:43.422Z,32.00
2023-02-22T14:24:41.773Z,28.00
2023-02-22T14:29:39.921Z,28.00
2023-02-22T14:34:41.038Z,32.00
2023-02-22T14:39:38.400Z,32.00
2023-02-22T14:44:38.568Z,32.00
2023-02-22T14:49:36.684Z,32.00
2023-02-22T14:54:37.018Z,32.00
2023-02-22T14:59:35.144Z,32.00
2023-02-22T15:04:36.487Z,32.00
2023-02-22T15:09:35.002Z,32.00
2023-02-22T15:14:34.144Z,32.00
2023-02-22T15:19:32.459Z,32.00
2023-02-22T15:24:32.709Z,32.00
2023-02-22T15:29:30.871Z,32.00
2023-02-22T15:34:30.020Z,36.00
2023-02-22T15:39:29.149Z,36.00
2023-02-22T15:44:29.293Z,36.00
2023-02-22T15:49:28.442Z,28.00
2023-02-22T15:54:28.140Z,24.00
2023-02-22T15:59:25.960Z,16.00
2023-02-22T16:04:25.135Z,20.00
2023-02-22T16:09:25.359Z,16.00
2023-02-22T16:14:23.526Z,12.00
2023-02-22T16:19:22.658Z,12.00
2023-02-22T16:24:21.013Z,8.00
2023-02-22T16:29:22.203Z,8.00
2023-02-22T16:34:21.332Z,4.00
2023-02-22T16:39:19.456Z,4.00
2023-02-22T16:44:20.794Z,0.00
2023-02-22T16:49:18.382Z,4.00
2023-02-22T16:54:17.674Z,0.00
2023-02-22T16:59:17.981Z,0.00
2023-02-22T17:04:17.289Z,0.00
2023-02-22T17:09:16.546Z,0.00
2023-02-22T17:14:15.582Z,0.00
2023-02-22T17:19:13.893Z,0.00
2023-02-22T17:24:14.201Z,0.00
2023-02-22T17:29:12.382Z,0.00
2023-02-22T17:34:11.798Z,0.00
2023-02-22T17:39:11.718Z,0.00
2023-02-22T17:44:10.311Z,0.00
2023-02-22T17:49:10.218Z,0.00
2023-02-22T17:54:10.119Z,0.00
2023-02-22T17:59:07.847Z,0.00
2023-02-22T18:04:07.801Z,0.00
2023-02-22T18:09:06.196Z,0.00
2023-02-22T18:14:10.176Z,0.00
2023-02-22T18:19:07.392Z,0.00
2023-02-22T18:24:04.841Z,0.00
2023-02-22T18:29:02.834Z,0.00
2023-02-22T18:34:03.357Z,0.00
2023-02-22T18:39:01.667Z,0.00
2023-02-22T18:44:01.953Z,0.00
2023-02-22T18:49:00.122Z,0.00
2023-02-22T18:54:00.642Z,0.00
2023-02-22T18:58:58.586Z,0.00
2023-02-22T19:03:57.730Z,0.00
2023-02-22T19:08:58.888Z,8.00
2023-02-22T19:13:57.209Z,8.00
2023-02-22T19:18:55.406Z,8.00
2023-02-22T19:23:56.598Z,8.00
2023-02-22T19:28:53.985Z,8.00
2023-02-22T19:33:53.856Z,8.00
2023-02-22T19:38:52.447Z,12.00
2023-02-22T19:43:51.717Z,8.00
2023-02-22T19:48:51.006Z,8.00
2023-02-22T19:53:50.235Z,8.00
2023-02-22T19:58:50.445Z,8.00
2023-02-22T20:03:49.664Z,8.00
2023-02-22T20:08:48.466Z,8.00
2023-02-22T20:13:48.234Z,8.00
2023-02-22T20:18:47.424Z,8.00
2023-02-22T20:23:45.631Z,8.00
2023-02-22T20:28:50.270Z,8.00
2023-02-22T20:33:50.055Z,8.00
2023-02-22T20:38:44.458Z,8.00
2023-02-22T20:43:42.705Z,8.00
2023-02-22T20:48:41.884Z,12.00
2023-02-22T20:53:41.736Z,8.00
2023-02-22T20:58:40.396Z,12.00
2023-02-22T21:03:39.539Z,8.00
2023-02-22T21:08:39.656Z,12.00
2023-02-22T21:13:38.043Z,8.00
2023-02-22T21:18:39.187Z,8.00
2023-02-22T21:23:37.343Z,8.00
2023-02-22T21:28:50.539Z,8.00
2023-02-22T21:33:33.701Z,8.00
2023-02-22T21:38:34.843Z,8.00
2023-02-22T21:43:33.959Z,8.00
2023-02-22T21:48:32.249Z,12.00
2023-02-22T21:53:31.395Z,8.00
2023-02-22T21:58:30.733Z,8.00
2023-02-22T22:03:31.028Z,8.00
2023-02-22T22:08:29.318Z,8.00
2023-02-22T22:13:29.634Z,8.00
2023-02-22T22:18:27.938Z,8.00
2023-02-22T22:23:27.242Z,8.00
2023-02-22T22:28:26.551Z,8.00
2023-02-22T22:33:25.869Z,8.00
2023-02-22T22:38:27.214Z,8.00
2023-02-22T22:43:24.613Z,8.00
2023-02-22T22:48:23.735Z,8.00
2023-02-22T22:53:24.056Z,8.00
2023-02-22T22:58:22.356Z,8.00
2023-02-22T23:03:21.763Z,8.00
2023-02-22T23:08:20.911Z,8.00
2023-02-22T23:13:20.049Z,12.00
2023-02-22T23:18:20.391Z,12.00
2023-02-22T23:23:18.681Z,8.00
2023-02-22T23:28:19.982Z,8.00
2023-02-22T23:33:17.277Z,8.00
2023-02-22T23:38:16.610Z,0.00
2023-02-22T23:43:15.889Z,0.00
2023-02-22T23:48:16.250Z,0.00
2023-02-22T23:53:15.529Z,0.00
2023-02-22T23:58:14.833Z,0.00
